sensor_id;sensor_type;location;lat;lon;timestamp;temperature;humidity
18153;DHT22;9202;51.578;7.734;2022-11-15T00:00:34;8.20;99.90
18153;DHT22;9202;51.578;7.734;2022-11-15T00:02:38;8.20;99.90
18153;DHT22;9202;51.578;7.734;2022-11-15T00:04:43;8.20;99.90
18153;DHT22;9202;51.578;7.734;2022-11-15T00:06:47;8.20;99.90
18153;DHT22;9202;51.578;7.734;2022-11-15T00:08:52;8.20;99.90
18153;DHT22;9202;51.578;7.734;2022-11-15T00:10:56;8.20;99.90
18153;DHT22;9202;51.578;7.734;2022-11-15T00:13:04;8.20;99.90
18153;DHT22;9202;51.578;7.734;2022-11-15T00:15:08;8.20;99.90
18153;DHT22;9202;51.578;7.734;2022-11-15T00:17:13;8.20;99.90
18153;DHT22;9202;51.578;7.734;2022-11-15T00:19:17;8.20;99.90
18153;DHT22;9202;51.578;7.734;2022-11-15T00:21:22;8.30;99.90
18153;DHT22;9202;51.578;7.734;2022-11-15T00:23:26;8.30;99.90
18153;DHT22;9202;51.578;7.734;2022-11-15T00:25:30;8.40;99.90
18153;DHT22;9202;51.578;7.734;2022-11-15T00:27:35;8.50;99.90
18153;DHT22;9202;51.578;7.734;2022-11-15T00:29:39;8.60;99.90
18153;DHT22;9202;51.578;7.734;2022-11-15T00:31:46;8.60;99.90
18153;DHT22;9202;51.578;7.734;2022-11-15T00:33:50;8.70;99.90
18153;DHT22;9202;51.578;7.734;2022-11-15T00:35:59;8.90;99.90
18153;DHT22;9202;51.578;7.734;2022-11-15T00:38:03;9.00;99.90
18153;DHT22;9202;51.578;7.734;2022-11-15T00:40:09;9.20;99.90
18153;DHT22;9202;51.578;7.734;2022-11-15T00:42:14;9.40;99.90
18153;DHT22;9202;51.578;7.734;2022-11-15T00:44:18;9.50;99.90
18153;DHT22;9202;51.578;7.734;2022-11-15T00:46:23;9.50;99.90
18153;DHT22;9202;51.578;7.734;2022-11-15T00:48:27;9.60;99.90
18153;DHT22;9202;51.578;7.734;2022-11-15T00:50:32;9.70;99.90
18153;DHT22;9202;51.578;7.734;2022-11-15T00:52:36;9.70;99.90
18153;DHT22;9202;51.578;7.734;2022-11-15T00:54:40;9.70;99.90
18153;DHT22;9202;51.578;7.734;2022-11-15T00:56:45;9.80;99.90
18153;DHT22;9202;51.578;7.734;2022-11-15T00:58:49;9.80;99.90
18153;DHT22;9202;51.578;7.734;2022-11-15T01:03:10;9.80;99.90
18153;DHT22;9202;51.578;7.734;2022-11-15T01:05:15;9.70;99.90
18153;DHT22;9202;51.578;7.734;2022-11-15T01:07:19;9.70;99.90
18153;DHT22;9202;51.578;7.734;2022-11-15T01:09:24;9.60;99.90
18153;DHT22;9202;51.578;7.734;2022-11-15T01:11:28;9.60;99.90
18153;DHT22;9202;51.578;7.734;2022-11-15T01:13:33;9.60;99.90
18153;DHT22;9202;51.578;7.734;2022-11-15T01:15:39;9.60;99.90
18153;DHT22;9202;51.578;7.734;2022-11-15T01:17:44;9.50;99.90
18153;DHT22;9202;51.578;7.734;2022-11-15T01:19:48;9.50;99.90
18153;DHT22;9202;51.578;7.734;2022-11-15T01:21:53;9.50;99.90
18153;DHT22;9202;51.578;7.734;2022-11-15T01:23:57;9.50;99.90
18153;DHT22;9202;51.578;7.734;2022-11-15T01:26:02;9.80;99.90
18153;DHT22;9202;51.578;7.734;2022-11-15T01:28:07;10.00;99.90
18153;DHT22;9202;51.578;7.734;2022-11-15T01:30:12;10.60;99.90
18153;DHT22;9202;51.578;7.734;2022-11-15T01:32:16;11.00;99.90
18153;DHT22;9202;51.578;7.734;2022-11-15T01:34:20;11.30;99.90
18153;DHT22;9202;51.578;7.734;2022-11-15T01:36:25;11.50;99.90
18153;DHT22;9202;51.578;7.734;2022-11-15T01:38:29;11.60;99.90
18153;DHT22;9202;51.578;7.734;2022-11-15T01:40:34;11.70;99.90
18153;DHT22;9202;51.578;7.734;2022-11-15T01:42:38;11.80;99.90
18153;DHT22;9202;51.578;7.734;2022-11-15T01:44:44;11.80;99.90
18153;DHT22;9202;51.578;7.734;2022-11-15T01:46:49;11.90;99.90
18153;DHT22;9202;51.578;7.734;2022-11-15T01:48:53;12.00;99.90
18153;DHT22;9202;51.578;7.734;2022-11-15T01:50:59;12.10;99.90
18153;DHT22;9202;51.578;7.734;2022-11-15T01:53:03;12.20;99.90
18153;DHT22;9202;51.578;7.734;2022-11-15T01:55:09;12.20;99.90
18153;DHT22;9202;51.578;7.734;2022-11-15T01:57:14;12.20;99.90
18153;DHT22;9202;51.578;7.734;2022-11-15T01:59:18;12.30;99.90
18153;DHT22;9202;51.578;7.734;2022-11-15T02:01:23;12.40;99.90
18153;DHT22;9202;51.578;7.734;2022-11-15T02:03:30;12.40;99.90
18153;DHT22;9202;51.578;7.734;2022-11-15T02:05:35;12.40;99.90
18153;DHT22;9202;51.578;7.734;2022-11-15T02:07:40;12.40;99.90
18153;DHT22;9202;51.578;7.734;2022-11-15T02:09:44;12.50;99.90
18153;DHT22;9202;51.578;7.734;2022-11-15T02:11:49;12.50;99.90
18153;DHT22;9202;51.578;7.734;2022-11-15T02:13:55;12.50;99.90
18153;DHT22;9202;51.578;7.734;2022-11-15T02:16:02;12.50;99.90
18153;DHT22;9202;51.578;7.734;2022-11-15T02:18:09;12.50;99.90
18153;DHT22;9202;51.578;7.734;2022-11-15T02:20:19;12.50;99.90
18153;DHT22;9202;51.578;7.734;2022-11-15T02:22:27;12.50;99.90
18153;DHT22;9202;51.578;7.734;2022-11-15T02:24:44;12.50;99.90
18153;DHT22;9202;51.578;7.734;2022-11-15T02:27:11;12.50;99.90
18153;DHT22;9202;51.578;7.734;2022-11-15T02:29:18;12.40;99.90
18153;DHT22;9202;51.578;7.734;2022-11-15T02:31:25;12.40;99.90
18153;DHT22;9202;51.578;7.734;2022-11-15T02:33:33;12.40;99.90
18153;DHT22;9202;51.578;7.734;2022-11-15T02:35:39;12.30;99.90
18153;DHT22;9202;51.578;7.734;2022-11-15T02:37:46;12.40;99.90
18153;DHT22;9202;51.578;7.734;2022-11-15T02:39:51;12.40;99.90
18153;DHT22;9202;51.578;7.734;2022-11-15T02:41:57;12.50;99.90
18153;DHT22;9202;51.578;7.734;2022-11-15T02:44:04;12.40;99.90
18153;DHT22;9202;51.578;7.734;2022-11-15T02:46:10;12.50;99.90
18153;DHT22;9202;51.578;7.734;2022-11-15T02:48:16;12.50;99.90
18153;DHT22;9202;51.578;7.734;2022-11-15T02:50:21;12.50;99.90
18153;DHT22;9202;51.578;7.734;2022-11-15T02:52:27;12.50;99.90
18153;DHT22;9202;51.578;7.734;2022-11-15T02:56:50;12.50;99.90
18153;DHT22;9202;51.578;7.734;2022-11-15T02:58:59;12.50;99.90
18153;DHT22;9202;51.578;7.734;2022-11-15T03:01:04;12.50;99.90
18153;DHT22;9202;51.578;7.734;2022-11-15T03:03:17;12.50;99.90
18153;DHT22;9202;51.578;7.734;2022-11-15T03:05:24;12.50;99.90
18153;DHT22;9202;51.578;7.734;2022-11-15T03:07:29;12.50;99.90
18153;DHT22;9202;51.578;7.734;2022-11-15T03:09:38;12.40;99.90
18153;DHT22;9202;51.578;7.734;2022-11-15T03:11:43;12.40;99.90
18153;DHT22;9202;51.578;7.734;2022-11-15T03:13:49;12.40;99.90
18153;DHT22;9202;51.578;7.734;2022-11-15T03:15:55;12.40;99.90
18153;DHT22;9202;51.578;7.734;2022-11-15T03:18:01;12.30;99.90
18153;DHT22;9202;51.578;7.734;2022-11-15T03:20:07;12.20;99.90
18153;DHT22;9202;51.578;7.734;2022-11-15T03:22:14;12.30;99.90
18153;DHT22;9202;51.578;7.734;2022-11-15T03:24:19;12.40;99.90
18153;DHT22;9202;51.578;7.734;2022-11-15T03:26:26;12.30;99.90
18153;DHT22;9202;51.578;7.734;2022-11-15T03:28:32;12.30;99.90
18153;DHT22;9202;51.578;7.734;2022-11-15T03:30:37;12.40;99.90
18153;DHT22;9202;51.578;7.734;2022-11-15T03:32:43;12.30;99.90
18153;DHT22;9202;51.578;7.734;2022-11-15T03:34:49;12.30;99.90
18153;DHT22;9202;51.578;7.734;2022-11-15T03:36:54;12.30;99.90
18153;DHT22;9202;51.578;7.734;2022-11-15T03:39:00;12.30;99.90
18153;DHT22;9202;51.578;7.734;2022-11-15T03:41:06;12.30;99.90
18153;DHT22;9202;51.578;7.734;2022-11-15T03:43:14;12.20;99.90
18153;DHT22;9202;51.578;7.734;2022-11-15T03:45:18;12.30;99.90
18153;DHT22;9202;51.578;7.734;2022-11-15T03:47:24;12.30;99.90
18153;DHT22;9202;51.578;7.734;2022-11-15T03:49:31;12.30;99.90
18153;DHT22;9202;51.578;7.734;2022-11-15T03:51:36;12.30;99.90
18153;DHT22;9202;51.578;7.734;2022-11-15T03:53:41;12.30;99.90
18153;DHT22;9202;51.578;7.734;2022-11-15T03:55:45;12.20;99.90
18153;DHT22;9202;51.578;7.734;2022-11-15T03:57:50;12.30;99.90
18153;DHT22;9202;51.578;7.734;2022-11-15T03:59:55;12.30;99.90
18153;DHT22;9202;51.578;7.734;2022-11-15T04:02:00;12.30;99.90
18153;DHT22;9202;51.578;7.734;2022-11-15T04:04:04;12.30;99.90
18153;DHT22;9202;51.578;7.734;2022-11-15T04:06:09;12.30;99.90
18153;DHT22;9202;51.578;7.734;2022-11-15T04:08:13;12.30;99.90
18153;DHT22;9202;51.578;7.734;2022-11-15T04:10:18;12.30;99.90
18153;DHT22;9202;51.578;7.734;2022-11-15T04:12:22;12.30;99.90
18153;DHT22;9202;51.578;7.734;2022-11-15T04:14:30;12.30;99.90
18153;DHT22;9202;51.578;7.734;2022-11-15T04:16:34;12.40;99.90
18153;DHT22;9202;51.578;7.734;2022-11-15T04:18:40;12.40;99.90
18153;DHT22;9202;51.578;7.734;2022-11-15T04:20:45;12.40;99.90
18153;DHT22;9202;51.578;7.734;2022-11-15T04:23:08;12.50;99.90
18153;DHT22;9202;51.578;7.734;2022-11-15T04:25:31;12.50;99.90
18153;DHT22;9202;51.578;7.734;2022-11-15T04:27:36;12.60;99.90
18153;DHT22;9202;51.578;7.734;2022-11-15T04:29:40;12.60;99.90
18153;DHT22;9202;51.578;7.734;2022-11-15T04:31:45;12.70;99.90
18153;DHT22;9202;51.578;7.734;2022-11-15T04:33:49;12.80;99.90
18153;DHT22;9202;51.578;7.734;2022-11-15T04:35:53;12.80;99.90
18153;DHT22;9202;51.578;7.734;2022-11-15T04:38:16;12.80;99.90
18153;DHT22;9202;51.578;7.734;2022-11-15T04:40:20;12.80;99.90
18153;DHT22;9202;51.578;7.734;2022-11-15T04:42:25;12.80;99.90
18153;DHT22;9202;51.578;7.734;2022-11-15T04:44:29;12.80;99.90
18153;DHT22;9202;51.578;7.734;2022-11-15T04:46:34;12.80;99.90
18153;DHT22;9202;51.578;7.734;2022-11-15T04:48:38;12.80;99.90
18153;DHT22;9202;51.578;7.734;2022-11-15T04:50:42;12.80;99.90
18153;DHT22;9202;51.578;7.734;2022-11-15T04:52:51;12.80;99.90
18153;DHT22;9202;51.578;7.734;2022-11-15T04:54:55;12.80;99.90
18153;DHT22;9202;51.578;7.734;2022-11-15T04:57:00;12.80;99.90
18153;DHT22;9202;51.578;7.734;2022-11-15T04:59:04;12.80;99.90
18153;DHT22;9202;51.578;7.734;2022-11-15T05:01:09;12.80;99.90
18153;DHT22;9202;51.578;7.734;2022-11-15T05:03:13;12.80;99.90
18153;DHT22;9202;51.578;7.734;2022-11-15T05:05:36;12.90;99.90
18153;DHT22;9202;51.578;7.734;2022-11-15T05:07:41;12.90;99.90
18153;DHT22;9202;51.578;7.734;2022-11-15T05:09:45;12.90;99.90
18153;DHT22;9202;51.578;7.734;2022-11-15T05:11:49;12.90;99.90
18153;DHT22;9202;51.578;7.734;2022-11-15T05:13:54;12.90;99.90
18153;DHT22;9202;51.578;7.734;2022-11-15T05:15:58;12.90;99.90
18153;DHT22;9202;51.578;7.734;2022-11-15T05:18:03;12.90;99.90
18153;DHT22;9202;51.578;7.734;2022-11-15T05:20:08;12.90;99.90
18153;DHT22;9202;51.578;7.734;2022-11-15T05:22:13;12.80;99.90
18153;DHT22;9202;51.578;7.734;2022-11-15T05:24:17;12.90;99.90
18153;DHT22;9202;51.578;7.734;2022-11-15T05:26:22;12.90;99.90
18153;DHT22;9202;51.578;7.734;2022-11-15T05:28:26;12.90;99.90
18153;DHT22;9202;51.578;7.734;2022-11-15T05:30:31;13.00;99.90
18153;DHT22;9202;51.578;7.734;2022-11-15T05:32:35;13.00;99.90
18153;DHT22;9202;51.578;7.734;2022-11-15T05:34:40;13.00;99.90
18153;DHT22;9202;51.578;7.734;2022-11-15T05:36:45;13.00;99.90
18153;DHT22;9202;51.578;7.734;2022-11-15T05:38:49;13.00;99.90
18153;DHT22;9202;51.578;7.734;2022-11-15T05:40:54;13.00;99.90
18153;DHT22;9202;51.578;7.734;2022-11-15T05:42:58;13.00;99.90
18153;DHT22;9202;51.578;7.734;2022-11-15T05:45:05;13.00;99.90
18153;DHT22;9202;51.578;7.734;2022-11-15T05:47:10;13.00;99.90
18153;DHT22;9202;51.578;7.734;2022-11-15T05:49:17;13.00;99.90
18153;DHT22;9202;51.578;7.734;2022-11-15T05:51:22;13.00;99.90
18153;DHT22;9202;51.578;7.734;2022-11-15T05:53:27;13.00;99.90
18153;DHT22;9202;51.578;7.734;2022-11-15T05:55:32;13.00;99.90
18153;DHT22;9202;51.578;7.734;2022-11-15T05:57:36;13.00;99.90
18153;DHT22;9202;51.578;7.734;2022-11-15T05:59:41;13.00;99.90
18153;DHT22;9202;51.578;7.734;2022-11-15T06:01:47;13.10;99.90
18153;DHT22;9202;51.578;7.734;2022-11-15T06:03:51;13.10;99.90
18153;DHT22;9202;51.578;7.734;2022-11-15T06:05:56;13.20;99.90
18153;DHT22;9202;51.578;7.734;2022-11-15T06:08:01;13.30;99.90
18153;DHT22;9202;51.578;7.734;2022-11-15T06:10:06;13.20;99.90
18153;DHT22;9202;51.578;7.734;2022-11-15T06:12:11;13.20;99.90
18153;DHT22;9202;51.578;7.734;2022-11-15T06:14:15;13.10;99.90
18153;DHT22;9202;51.578;7.734;2022-11-15T06:16:19;13.20;99.90
18153;DHT22;9202;51.578;7.734;2022-11-15T06:18:24;13.20;99.90
18153;DHT22;9202;51.578;7.734;2022-11-15T06:20:29;13.20;99.90
18153;DHT22;9202;51.578;7.734;2022-11-15T06:22:33;13.10;99.90
18153;DHT22;9202;51.578;7.734;2022-11-15T06:24:38;13.10;99.90
18153;DHT22;9202;51.578;7.734;2022-11-15T06:26:42;13.10;99.90
18153;DHT22;9202;51.578;7.734;2022-11-15T06:28:46;13.10;99.90
18153;DHT22;9202;51.578;7.734;2022-11-15T06:30:51;13.10;99.90
18153;DHT22;9202;51.578;7.734;2022-11-15T06:33:00;13.10;99.90
18153;DHT22;9202;51.578;7.734;2022-11-15T06:35:06;13.10;99.90
18153;DHT22;9202;51.578;7.734;2022-11-15T06:37:10;13.10;99.90
18153;DHT22;9202;51.578;7.734;2022-11-15T06:39:15;13.00;99.90
18153;DHT22;9202;51.578;7.734;2022-11-15T06:41:19;13.00;99.90
18153;DHT22;9202;51.578;7.734;2022-11-15T06:43:24;13.00;99.90
18153;DHT22;9202;51.578;7.734;2022-11-15T06:45:29;13.00;99.90
18153;DHT22;9202;51.578;7.734;2022-11-15T06:47:33;12.90;99.90
18153;DHT22;9202;51.578;7.734;2022-11-15T06:49:38;12.90;99.90
18153;DHT22;9202;51.578;7.734;2022-11-15T06:51:42;12.90;99.90
18153;DHT22;9202;51.578;7.734;2022-11-15T06:53:46;12.90;99.90
18153;DHT22;9202;51.578;7.734;2022-11-15T06:55:51;12.80;99.90
18153;DHT22;9202;51.578;7.734;2022-11-15T06:57:57;12.80;99.90
18153;DHT22;9202;51.578;7.734;2022-11-15T07:00:02;12.80;99.90
18153;DHT22;9202;51.578;7.734;2022-11-15T07:02:10;12.80;99.90
18153;DHT22;9202;51.578;7.734;2022-11-15T07:04:15;12.90;99.90
18153;DHT22;9202;51.578;7.734;2022-11-15T07:06:20;12.90;99.90
18153;DHT22;9202;51.578;7.734;2022-11-15T07:08:26;13.00;99.90
18153;DHT22;9202;51.578;7.734;2022-11-15T07:10:30;13.00;99.90
18153;DHT22;9202;51.578;7.734;2022-11-15T07:12:35;13.00;99.90
18153;DHT22;9202;51.578;7.734;2022-11-15T07:14:39;13.10;99.90
18153;DHT22;9202;51.578;7.734;2022-11-15T07:16:43;13.10;99.90
18153;DHT22;9202;51.578;7.734;2022-11-15T07:18:48;13.20;99.90
18153;DHT22;9202;51.578;7.734;2022-11-15T07:20:52;13.10;99.90
18153;DHT22;9202;51.578;7.734;2022-11-15T07:22:59;13.10;99.90
18153;DHT22;9202;51.578;7.734;2022-11-15T07:25:05;13.10;99.90
18153;DHT22;9202;51.578;7.734;2022-11-15T07:27:09;13.20;99.90
18153;DHT22;9202;51.578;7.734;2022-11-15T07:29:14;13.20;99.90
18153;DHT22;9202;51.578;7.734;2022-11-15T07:31:18;13.30;99.90
18153;DHT22;9202;51.578;7.734;2022-11-15T07:33:23;13.30;99.90
18153;DHT22;9202;51.578;7.734;2022-11-15T07:35:27;13.30;99.90
18153;DHT22;9202;51.578;7.734;2022-11-15T07:37:32;13.40;99.90
18153;DHT22;9202;51.578;7.734;2022-11-15T07:39:36;13.50;99.90
18153;DHT22;9202;51.578;7.734;2022-11-15T07:41:41;13.50;99.90
18153;DHT22;9202;51.578;7.734;2022-11-15T07:43:47;13.60;99.90
18153;DHT22;9202;51.578;7.734;2022-11-15T07:45:51;13.60;99.90
18153;DHT22;9202;51.578;7.734;2022-11-15T07:47:57;13.70;99.90
18153;DHT22;9202;51.578;7.734;2022-11-15T07:50:02;13.60;99.90
18153;DHT22;9202;51.578;7.734;2022-11-15T07:52:06;13.70;99.90
18153;DHT22;9202;51.578;7.734;2022-11-15T07:54:11;13.70;99.90
18153;DHT22;9202;51.578;7.734;2022-11-15T07:56:15;13.80;99.90
18153;DHT22;9202;51.578;7.734;2022-11-15T07:58:19;13.80;99.90
18153;DHT22;9202;51.578;7.734;2022-11-15T08:00:24;13.60;99.90
18153;DHT22;9202;51.578;7.734;2022-11-15T08:02:29;13.50;99.90
18153;DHT22;9202;51.578;7.734;2022-11-15T08:04:34;13.50;99.90
18153;DHT22;9202;51.578;7.734;2022-11-15T08:06:38;13.40;99.90
18153;DHT22;9202;51.578;7.734;2022-11-15T08:08:43;13.30;99.90
18153;DHT22;9202;51.578;7.734;2022-11-15T08:10:47;13.30;99.90
18153;DHT22;9202;51.578;7.734;2022-11-15T08:12:57;13.30;99.90
18153;DHT22;9202;51.578;7.734;2022-11-15T08:15:01;13.20;99.90
18153;DHT22;9202;51.578;7.734;2022-11-15T08:17:06;13.20;99.90
18153;DHT22;9202;51.578;7.734;2022-11-15T08:19:10;13.30;99.90
18153;DHT22;9202;51.578;7.734;2022-11-15T08:21:19;13.30;99.90
18153;DHT22;9202;51.578;7.734;2022-11-15T08:23:21;13.30;99.90
18153;DHT22;9202;51.578;7.734;2022-11-15T08:25:26;13.30;99.90
18153;DHT22;9202;51.578;7.734;2022-11-15T08:27:31;13.30;99.90
18153;DHT22;9202;51.578;7.734;2022-11-15T08:29:35;13.40;99.90
18153;DHT22;9202;51.578;7.734;2022-11-15T08:31:40;13.30;99.90
18153;DHT22;9202;51.578;7.734;2022-11-15T08:33:44;13.40;99.90
18153;DHT22;9202;51.578;7.734;2022-11-15T08:35:49;13.50;99.90
18153;DHT22;9202;51.578;7.734;2022-11-15T08:37:54;13.40;99.90
18153;DHT22;9202;51.578;7.734;2022-11-15T08:39:58;13.40;99.90
18153;DHT22;9202;51.578;7.734;2022-11-15T08:42:03;13.40;99.90
18153;DHT22;9202;51.578;7.734;2022-11-15T08:44:07;13.50;99.90
18153;DHT22;9202;51.578;7.734;2022-11-15T08:46:12;13.50;99.90
18153;DHT22;9202;51.578;7.734;2022-11-15T08:48:17;13.60;99.90
18153;DHT22;9202;51.578;7.734;2022-11-15T08:50:21;13.60;99.90
18153;DHT22;9202;51.578;7.734;2022-11-15T08:52:26;13.60;99.90
18153;DHT22;9202;51.578;7.734;2022-11-15T08:54:30;13.60;99.90
18153;DHT22;9202;51.578;7.734;2022-11-15T08:56:35;13.60;99.90
18153;DHT22;9202;51.578;7.734;2022-11-15T08:58:39;13.60;99.90
18153;DHT22;9202;51.578;7.734;2022-11-15T09:00:44;13.60;99.90
18153;DHT22;9202;51.578;7.734;2022-11-15T09:02:48;13.60;99.90
18153;DHT22;9202;51.578;7.734;2022-11-15T09:04:53;13.60;99.90
18153;DHT22;9202;51.578;7.734;2022-11-15T09:06:57;13.70;99.90
18153;DHT22;9202;51.578;7.734;2022-11-15T09:09:02;13.70;99.90
18153;DHT22;9202;51.578;7.734;2022-11-15T09:11:07;13.70;99.90
18153;DHT22;9202;51.578;7.734;2022-11-15T09:13:12;13.70;99.90
18153;DHT22;9202;51.578;7.734;2022-11-15T09:15:17;13.70;99.90
18153;DHT22;9202;51.578;7.734;2022-11-15T09:17:22;13.70;99.90
18153;DHT22;9202;51.578;7.734;2022-11-15T09:19:28;13.70;99.90
18153;DHT22;9202;51.578;7.734;2022-11-15T09:21:33;13.70;99.90
18153;DHT22;9202;51.578;7.734;2022-11-15T09:23:37;13.80;99.90
18153;DHT22;9202;51.578;7.734;2022-11-15T09:25:42;13.80;99.90
18153;DHT22;9202;51.578;7.734;2022-11-15T09:27:46;13.90;99.90
18153;DHT22;9202;51.578;7.734;2022-11-15T09:29:50;13.90;99.90
18153;DHT22;9202;51.578;7.734;2022-11-15T09:31:55;14.00;99.90
18153;DHT22;9202;51.578;7.734;2022-11-15T09:33:59;13.90;99.90
18153;DHT22;9202;51.578;7.734;2022-11-15T09:36:05;14.00;99.90
18153;DHT22;9202;51.578;7.734;2022-11-15T09:38:09;14.00;99.90
18153;DHT22;9202;51.578;7.734;2022-11-15T09:40:14;13.90;99.90
18153;DHT22;9202;51.578;7.734;2022-11-15T09:42:23;13.90;99.90
18153;DHT22;9202;51.578;7.734;2022-11-15T09:44:38;14.00;99.90
18153;DHT22;9202;51.578;7.734;2022-11-15T09:46:54;14.00;99.90
18153;DHT22;9202;51.578;7.734;2022-11-15T09:48:51;14.00;99.90
18153;DHT22;9202;51.578;7.734;2022-11-15T09:50:57;14.00;99.90
18153;DHT22;9202;51.578;7.734;2022-11-15T09:53:02;14.00;99.90
18153;DHT22;9202;51.578;7.734;2022-11-15T09:55:07;14.00;99.90
18153;DHT22;9202;51.578;7.734;2022-11-15T09:57:11;14.00;99.90
18153;DHT22;9202;51.578;7.734;2022-11-15T09:59:29;14.00;99.90
18153;DHT22;9202;51.578;7.734;2022-11-15T10:01:36;14.10;99.90
18153;DHT22;9202;51.578;7.734;2022-11-15T10:03:39;14.20;99.90
18153;DHT22;9202;51.578;7.734;2022-11-15T10:05:44;14.20;99.90
18153;DHT22;9202;51.578;7.734;2022-11-15T10:07:50;14.20;99.90
18153;DHT22;9202;51.578;7.734;2022-11-15T10:09:54;14.40;99.90
18153;DHT22;9202;51.578;7.734;2022-11-15T10:11:58;14.50;99.90
18153;DHT22;9202;51.578;7.734;2022-11-15T10:14:02;14.60;99.90
18153;DHT22;9202;51.578;7.734;2022-11-15T10:16:08;14.70;99.90
18153;DHT22;9202;51.578;7.734;2022-11-15T10:18:14;14.80;99.90
18153;DHT22;9202;51.578;7.734;2022-11-15T10:20:20;14.90;99.90
18153;DHT22;9202;51.578;7.734;2022-11-15T10:22:27;15.10;99.90
18153;DHT22;9202;51.578;7.734;2022-11-15T10:24:33;15.10;99.90
18153;DHT22;9202;51.578;7.734;2022-11-15T10:26:35;15.10;99.90
18153;DHT22;9202;51.578;7.734;2022-11-15T10:28:37;15.30;99.90
18153;DHT22;9202;51.578;7.734;2022-11-15T10:30:40;15.40;99.90
18153;DHT22;9202;51.578;7.734;2022-11-15T10:32:44;15.40;99.90
18153;DHT22;9202;51.578;7.734;2022-11-15T10:34:48;15.40;99.90
18153;DHT22;9202;51.578;7.734;2022-11-15T10:36:54;15.50;99.90
18153;DHT22;9202;51.578;7.734;2022-11-15T10:38:57;15.30;99.90
18153;DHT22;9202;51.578;7.734;2022-11-15T10:41:06;15.30;99.90
18153;DHT22;9202;51.578;7.734;2022-11-15T10:43:15;15.40;99.90
18153;DHT22;9202;51.578;7.734;2022-11-15T10:45:25;15.50;99.90
18153;DHT22;9202;51.578;7.734;2022-11-15T10:47:29;15.50;99.90
18153;DHT22;9202;51.578;7.734;2022-11-15T10:49:34;15.60;99.90
18153;DHT22;9202;51.578;7.734;2022-11-15T10:51:39;15.70;99.90
18153;DHT22;9202;51.578;7.734;2022-11-15T10:53:43;15.80;99.90
18153;DHT22;9202;51.578;7.734;2022-11-15T10:55:46;15.80;99.90
18153;DHT22;9202;51.578;7.734;2022-11-15T10:57:50;15.80;99.90
18153;DHT22;9202;51.578;7.734;2022-11-15T10:59:54;15.90;99.90
18153;DHT22;9202;51.578;7.734;2022-11-15T11:01:57;16.00;99.90
18153;DHT22;9202;51.578;7.734;2022-11-15T11:04:00;15.90;99.90
18153;DHT22;9202;51.578;7.734;2022-11-15T11:06:04;16.00;99.90
18153;DHT22;9202;51.578;7.734;2022-11-15T11:08:18;15.90;99.90
18153;DHT22;9202;51.578;7.734;2022-11-15T11:10:18;16.00;99.90
18153;DHT22;9202;51.578;7.734;2022-11-15T11:12:26;16.00;99.90
18153;DHT22;9202;51.578;7.734;2022-11-15T11:14:29;16.00;99.90
18153;DHT22;9202;51.578;7.734;2022-11-15T11:16:42;15.90;99.90
18153;DHT22;9202;51.578;7.734;2022-11-15T11:18:45;15.90;99.90
18153;DHT22;9202;51.578;7.734;2022-11-15T11:20:49;15.90;99.90
18153;DHT22;9202;51.578;7.734;2022-11-15T11:22:58;15.90;99.90
18153;DHT22;9202;51.578;7.734;2022-11-15T11:25:04;15.90;99.90
18153;DHT22;9202;51.578;7.734;2022-11-15T11:27:12;16.00;99.90
18153;DHT22;9202;51.578;7.734;2022-11-15T11:29:19;16.00;99.90
18153;DHT22;9202;51.578;7.734;2022-11-15T11:31:24;16.00;99.90
18153;DHT22;9202;51.578;7.734;2022-11-15T11:33:29;16.10;99.90
18153;DHT22;9202;51.578;7.734;2022-11-15T11:35:34;16.00;99.90
18153;DHT22;9202;51.578;7.734;2022-11-15T11:37:49;15.90;99.90
18153;DHT22;9202;51.578;7.734;2022-11-15T11:39:43;15.90;99.90
18153;DHT22;9202;51.578;7.734;2022-11-15T11:41:52;16.50;99.90
18153;DHT22;9202;51.578;7.734;2022-11-15T11:44:06;15.90;99.90
18153;DHT22;9202;51.578;7.734;2022-11-15T11:46:24;15.90;99.90
18153;DHT22;9202;51.578;7.734;2022-11-15T11:48:31;15.90;99.90
18153;DHT22;9202;51.578;7.734;2022-11-15T11:52:53;16.00;99.90
18153;DHT22;9202;51.578;7.734;2022-11-15T11:55:00;16.00;99.90
18153;DHT22;9202;51.578;7.734;2022-11-15T11:57:04;16.00;99.90
18153;DHT22;9202;51.578;7.734;2022-11-15T11:59:10;16.80;99.90
18153;DHT22;9202;51.578;7.734;2022-11-15T12:01:17;16.00;99.90
18153;DHT22;9202;51.578;7.734;2022-11-15T12:03:20;15.90;99.90
18153;DHT22;9202;51.578;7.734;2022-11-15T12:05:25;16.00;99.90
18153;DHT22;9202;51.578;7.734;2022-11-15T12:07:29;16.10;99.90
18153;DHT22;9202;51.578;7.734;2022-11-15T12:09:35;16.10;99.90
18153;DHT22;9202;51.578;7.734;2022-11-15T12:11:41;16.10;99.90
18153;DHT22;9202;51.578;7.734;2022-11-15T12:13:42;16.10;99.90
18153;DHT22;9202;51.578;7.734;2022-11-15T12:15:47;16.10;99.90
18153;DHT22;9202;51.578;7.734;2022-11-15T12:17:50;16.00;99.90
18153;DHT22;9202;51.578;7.734;2022-11-15T12:19:52;16.00;99.90
18153;DHT22;9202;51.578;7.734;2022-11-15T12:21:59;16.00;99.90
18153;DHT22;9202;51.578;7.734;2022-11-15T12:24:02;16.00;99.90
18153;DHT22;9202;51.578;7.734;2022-11-15T12:26:07;16.10;99.90
18153;DHT22;9202;51.578;7.734;2022-11-15T12:28:13;16.00;99.90
18153;DHT22;9202;51.578;7.734;2022-11-15T12:30:17;16.00;99.90
18153;DHT22;9202;51.578;7.734;2022-11-15T12:32:24;16.00;99.90
18153;DHT22;9202;51.578;7.734;2022-11-15T12:34:35;16.00;99.90
18153;DHT22;9202;51.578;7.734;2022-11-15T12:36:36;16.10;99.90
18153;DHT22;9202;51.578;7.734;2022-11-15T12:38:56;16.30;99.90
18153;DHT22;9202;51.578;7.734;2022-11-15T12:41:15;16.20;99.90
18153;DHT22;9202;51.578;7.734;2022-11-15T12:45:41;16.00;99.90
18153;DHT22;9202;51.578;7.734;2022-11-15T12:47:43;16.00;99.90
18153;DHT22;9202;51.578;7.734;2022-11-15T12:49:46;16.00;99.90
18153;DHT22;9202;51.578;7.734;2022-11-15T12:56:32;15.90;99.90
18153;DHT22;9202;51.578;7.734;2022-11-15T12:58:40;15.90;99.90
18153;DHT22;9202;51.578;7.734;2022-11-15T13:00:43;15.90;99.90
18153;DHT22;9202;51.578;7.734;2022-11-15T13:02:46;15.70;99.90
18153;DHT22;9202;51.578;7.734;2022-11-15T13:04:50;15.70;99.90
18153;DHT22;9202;51.578;7.734;2022-11-15T13:06:54;15.70;99.90
18153;DHT22;9202;51.578;7.734;2022-11-15T13:08:57;15.70;99.90
18153;DHT22;9202;51.578;7.734;2022-11-15T13:11:06;15.70;99.90
18153;DHT22;9202;51.578;7.734;2022-11-15T13:13:11;15.80;99.90
18153;DHT22;9202;51.578;7.734;2022-11-15T13:15:31;15.60;99.90
18153;DHT22;9202;51.578;7.734;2022-11-15T13:17:36;15.70;99.90
18153;DHT22;9202;51.578;7.734;2022-11-15T13:19:41;15.60;99.90
18153;DHT22;9202;51.578;7.734;2022-11-15T13:21:48;15.60;99.90
18153;DHT22;9202;51.578;7.734;2022-11-15T13:24:10;15.60;99.90
18153;DHT22;9202;51.578;7.734;2022-11-15T13:26:14;15.60;99.90
18153;DHT22;9202;51.578;7.734;2022-11-15T13:28:20;15.60;99.90
18153;DHT22;9202;51.578;7.734;2022-11-15T13:30:25;15.50;99.90
18153;DHT22;9202;51.578;7.734;2022-11-15T13:32:27;15.40;99.90
18153;DHT22;9202;51.578;7.734;2022-11-15T13:34:30;15.40;99.90
18153;DHT22;9202;51.578;7.734;2022-11-15T13:36:36;15.40;99.90
18153;DHT22;9202;51.578;7.734;2022-11-15T13:38:39;15.40;99.90
18153;DHT22;9202;51.578;7.734;2022-11-15T13:40:42;15.40;99.90